sensor_id;sensor_type;location;lat;lon;timestamp;P1;durP1;ratioP1;P2;durP2;ratioP2
73452;SDS011;61687;56.232;43.854;2022-08-05T00:00:32;28.58;;;19.80;;
73452;SDS011;61687;56.232;43.854;2022-08-05T00:02:58;33.15;;;19.23;;
73452;SDS011;61687;56.232;43.854;2022-08-05T00:05:24;29.13;;;18.90;;
73452;SDS011;61687;56.232;43.854;2022-08-05T00:07:50;30.73;;;19.02;;
73452;SDS011;61687;56.232;43.854;2022-08-05T00:10:16;28.48;;;19.13;;
73452;SDS011;61687;56.232;43.854;2022-08-05T00:12:42;30.85;;;19.10;;
73452;SDS011;61687;56.232;43.854;2022-08-05T00:15:08;29.53;;;19.00;;
73452;SDS011;61687;56.232;43.854;2022-08-05T00:17:34;28.73;;;18.60;;
73452;SDS011;61687;56.232;43.854;2022-08-05T00:20:00;30.35;;;20.13;;
73452;SDS011;61687;56.232;43.854;2022-08-05T00:22:29;32.50;;;18.85;;
73452;SDS011;61687;56.232;43.854;2022-08-05T00:24:55;30.98;;;19.40;;
73452;SDS011;61687;56.232;43.854;2022-08-05T00:27:21;32.07;;;18.93;;
73452;SDS011;61687;56.232;43.854;2022-08-05T00:29:47;33.55;;;19.58;;
73452;SDS011;61687;56.232;43.854;2022-08-05T00:32:13;26.85;;;20.20;;
73452;SDS011;61687;56.232;43.854;2022-08-05T00:34:39;29.98;;;20.23;;
73452;SDS011;61687;56.232;43.854;2022-08-05T00:37:06;31.58;;;20.88;;
73452;SDS011;61687;56.232;43.854;2022-08-05T00:39:32;28.97;;;19.63;;
73452;SDS011;61687;56.232;43.854;2022-08-05T00:41:58;30.48;;;21.27;;
73452;SDS011;61687;56.232;43.854;2022-08-05T00:44:24;34.13;;;20.80;;
73452;SDS011;61687;56.232;43.854;2022-08-05T00:46:50;32.33;;;21.13;;
73452;SDS011;61687;56.232;43.854;2022-08-05T00:49:16;29.20;;;20.50;;
73452;SDS011;61687;56.232;43.854;2022-08-05T00:51:44;30.92;;;20.33;;
73452;SDS011;61687;56.232;43.854;2022-08-05T00:54:11;29.75;;;20.85;;
73452;SDS011;61687;56.232;43.854;2022-08-05T00:56:38;30.85;;;21.02;;
73452;SDS011;61687;56.232;43.854;2022-08-05T00:59:05;36.60;;;20.70;;
73452;SDS011;61687;56.232;43.854;2022-08-05T01:01:31;32.43;;;21.47;;
73452;SDS011;61687;56.232;43.854;2022-08-05T01:03:57;31.73;;;21.13;;
73452;SDS011;61687;56.232;43.854;2022-08-05T01:06:23;30.88;;;20.27;;
73452;SDS011;61687;56.232;43.854;2022-08-05T01:08:49;30.30;;;21.55;;
73452;SDS011;61687;56.232;43.854;2022-08-05T01:11:22;27.47;;;21.37;;
73452;SDS011;61687;56.232;43.854;2022-08-05T01:17:10;33.55;;;21.42;;
73452;SDS011;61687;56.232;43.854;2022-08-05T01:30:51;31.73;;;21.40;;
73452;SDS011;61687;56.232;43.854;2022-08-05T01:33:22;34.40;;;21.60;;
73452;SDS011;61687;56.232;43.854;2022-08-05T01:35:50;29.40;;;20.98;;
73452;SDS011;61687;56.232;43.854;2022-08-05T01:38:20;28.10;;;21.07;;
73452;SDS011;61687;56.232;43.854;2022-08-05T01:40:47;32.83;;;21.17;;
73452;SDS011;61687;56.232;43.854;2022-08-05T01:43:14;32.22;;;20.65;;
73452;SDS011;61687;56.232;43.854;2022-08-05T01:45:41;32.83;;;21.23;;
73452;SDS011;61687;56.232;43.854;2022-08-05T01:48:07;29.42;;;21.83;;
73452;SDS011;61687;56.232;43.854;2022-08-05T01:50:38;30.30;;;20.80;;
73452;SDS011;61687;56.232;43.854;2022-08-05T01:53:06;33.20;;;21.55;;
73452;SDS011;61687;56.232;43.854;2022-08-05T01:55:36;30.52;;;21.95;;
73452;SDS011;61687;56.232;43.854;2022-08-05T01:58:06;32.67;;;21.40;;
73452;SDS011;61687;56.232;43.854;2022-08-05T02:00:34;32.83;;;22.35;;
73452;SDS011;61687;56.232;43.854;2022-08-05T02:03:05;27.67;;;20.63;;
73452;SDS011;61687;56.232;43.854;2022-08-05T02:05:35;33.13;;;23.35;;
73452;SDS011;61687;56.232;43.854;2022-08-05T02:08:04;33.05;;;23.17;;
73452;SDS011;61687;56.232;43.854;2022-08-05T02:10:35;31.33;;;22.00;;
73452;SDS011;61687;56.232;43.854;2022-08-05T02:16:33;36.10;;;21.43;;
73452;SDS011;61687;56.232;43.854;2022-08-05T02:18:55;33.25;;;20.60;;
73452;SDS011;61687;56.232;43.854;2022-08-05T02:21:29;32.60;;;22.08;;
73452;SDS011;61687;56.232;43.854;2022-08-05T02:24:02;31.08;;;20.45;;
73452;SDS011;61687;56.232;43.854;2022-08-05T02:26:34;33.83;;;21.38;;
73452;SDS011;61687;56.232;43.854;2022-08-05T02:29:05;33.30;;;20.83;;
73452;SDS011;61687;56.232;43.854;2022-08-05T02:31:32;33.03;;;21.95;;
73452;SDS011;61687;56.232;43.854;2022-08-05T02:34:02;33.70;;;21.13;;
73452;SDS011;61687;56.232;43.854;2022-08-05T02:36:38;41.55;;;22.17;;
73452;SDS011;61687;56.232;43.854;2022-08-05T02:39:08;42.33;;;23.10;;
73452;SDS011;61687;56.232;43.854;2022-08-05T02:41:35;33.37;;;21.73;;
73452;SDS011;61687;56.232;43.854;2022-08-05T02:44:06;37.10;;;20.55;;
73452;SDS011;61687;56.232;43.854;2022-08-05T02:46:33;40.60;;;22.65;;
73452;SDS011;61687;56.232;43.854;2022-08-05T02:49:01;32.00;;;20.20;;
73452;SDS011;61687;56.232;43.854;2022-08-05T02:51:29;29.75;;;20.65;;
73452;SDS011;61687;56.232;43.854;2022-08-05T02:53:56;26.60;;;20.00;;
73452;SDS011;61687;56.232;43.854;2022-08-05T02:56:23;33.55;;;21.15;;
73452;SDS011;61687;56.232;43.854;2022-08-05T02:58:51;29.20;;;20.45;;
73452;SDS011;61687;56.232;43.854;2022-08-05T03:01:20;32.38;;;21.45;;
73452;SDS011;61687;56.232;43.854;2022-08-05T03:03:50;28.20;;;19.63;;
73452;SDS011;61687;56.232;43.854;2022-08-05T03:06:19;28.63;;;20.17;;
73452;SDS011;61687;56.232;43.854;2022-08-05T03:08:46;24.42;;;17.63;;
73452;SDS011;61687;56.232;43.854;2022-08-05T03:11:20;31.50;;;18.95;;
73452;SDS011;61687;56.232;43.854;2022-08-05T03:13:48;33.25;;;18.85;;
73452;SDS011;61687;56.232;43.854;2022-08-05T03:16:15;27.48;;;19.40;;
73452;SDS011;61687;56.232;43.854;2022-08-05T03:18:41;30.87;;;17.97;;
73452;SDS011;61687;56.232;43.854;2022-08-05T03:21:07;28.33;;;19.00;;
73452;SDS011;61687;56.232;43.854;2022-08-05T03:23:34;23.63;;;18.58;;
73452;SDS011;61687;56.232;43.854;2022-08-05T03:26:01;34.65;;;19.38;;
73452;SDS011;61687;56.232;43.854;2022-08-05T03:28:28;33.88;;;18.48;;
73452;SDS011;61687;56.232;43.854;2022-08-05T03:30:55;25.87;;;17.73;;
73452;SDS011;61687;56.232;43.854;2022-08-05T03:33:23;26.00;;;18.08;;
73452;SDS011;61687;56.232;43.854;2022-08-05T03:35:52;26.10;;;18.30;;
73452;SDS011;61687;56.232;43.854;2022-08-05T03:38:20;25.63;;;18.63;;
73452;SDS011;61687;56.232;43.854;2022-08-05T03:40:47;23.60;;;17.83;;
73452;SDS011;61687;56.232;43.854;2022-08-05T03:43:13;28.50;;;17.60;;
73452;SDS011;61687;56.232;43.854;2022-08-05T03:45:40;25.25;;;17.50;;
73452;SDS011;61687;56.232;43.854;2022-08-05T03:48:06;29.70;;;19.25;;
73452;SDS011;61687;56.232;43.854;2022-08-05T03:53:18;26.50;;;17.98;;
73452;SDS011;61687;56.232;43.854;2022-08-05T03:55:53;28.27;;;17.47;;
73452;SDS011;61687;56.232;43.854;2022-08-05T03:58:25;29.77;;;17.70;;
73452;SDS011;61687;56.232;43.854;2022-08-05T04:00:55;25.08;;;17.42;;
73452;SDS011;61687;56.232;43.854;2022-08-05T04:03:24;27.25;;;17.60;;
73452;SDS011;61687;56.232;43.854;2022-08-05T04:05:52;25.73;;;18.05;;
73452;SDS011;61687;56.232;43.854;2022-08-05T04:08:19;29.07;;;17.43;;
73452;SDS011;61687;56.232;43.854;2022-08-05T04:10:45;25.75;;;17.63;;
73452;SDS011;61687;56.232;43.854;2022-08-05T04:13:11;27.98;;;17.08;;
73452;SDS011;61687;56.232;43.854;2022-08-05T04:15:38;26.42;;;16.98;;
73452;SDS011;61687;56.232;43.854;2022-08-05T04:18:04;21.52;;;12.88;;
73452;SDS011;61687;56.232;43.854;2022-08-05T04:20:31;19.97;;;13.23;;
73452;SDS011;61687;56.232;43.854;2022-08-05T04:22:57;19.58;;;13.45;;
73452;SDS011;61687;56.232;43.854;2022-08-05T04:25:23;21.40;;;14.13;;
73452;SDS011;61687;56.232;43.854;2022-08-05T04:27:49;23.52;;;14.07;;
73452;SDS011;61687;56.232;43.854;2022-08-05T04:30:15;27.17;;;14.10;;
73452;SDS011;61687;56.232;43.854;2022-08-05T04:32:41;24.15;;;15.10;;
73452;SDS011;61687;56.232;43.854;2022-08-05T04:35:07;16.25;;;12.75;;
73452;SDS011;61687;56.232;43.854;2022-08-05T04:37:33;20.70;;;13.25;;
73452;SDS011;61687;56.232;43.854;2022-08-05T04:39:59;17.77;;;12.13;;
73452;SDS011;61687;56.232;43.854;2022-08-05T04:42:24;16.77;;;11.60;;
73452;SDS011;61687;56.232;43.854;2022-08-05T04:44:50;15.18;;;11.48;;
73452;SDS011;61687;56.232;43.854;2022-08-05T04:47:16;19.93;;;11.30;;
73452;SDS011;61687;56.232;43.854;2022-08-05T04:49:42;17.23;;;11.75;;
73452;SDS011;61687;56.232;43.854;2022-08-05T04:52:08;20.55;;;11.70;;
73452;SDS011;61687;56.232;43.854;2022-08-05T04:54:34;20.53;;;14.43;;
73452;SDS011;61687;56.232;43.854;2022-08-05T04:56:59;19.02;;;12.88;;
73452;SDS011;61687;56.232;43.854;2022-08-05T04:59:25;15.43;;;10.80;;
73452;SDS011;61687;56.232;43.854;2022-08-05T05:01:51;15.30;;;10.45;;
73452;SDS011;61687;56.232;43.854;2022-08-05T05:04:17;20.25;;;10.88;;
73452;SDS011;61687;56.232;43.854;2022-08-05T05:06:43;19.15;;;10.30;;
73452;SDS011;61687;56.232;43.854;2022-08-05T05:09:10;16.08;;;10.88;;
73452;SDS011;61687;56.232;43.854;2022-08-05T05:11:38;16.37;;;10.37;;
73452;SDS011;61687;56.232;43.854;2022-08-05T05:14:04;19.80;;;10.70;;
73452;SDS011;61687;56.232;43.854;2022-08-05T05:16:30;20.13;;;10.10;;
73452;SDS011;61687;56.232;43.854;2022-08-05T05:18:57;15.25;;;9.65;;
73452;SDS011;61687;56.232;43.854;2022-08-05T05:21:23;19.53;;;9.67;;
73452;SDS011;61687;56.232;43.854;2022-08-05T05:23:49;17.58;;;9.82;;
73452;SDS011;61687;56.232;43.854;2022-08-05T05:26:15;15.18;;;9.25;;
73452;SDS011;61687;56.232;43.854;2022-08-05T05:28:41;15.63;;;9.77;;
73452;SDS011;61687;56.232;43.854;2022-08-05T05:31:07;18.00;;;9.47;;
73452;SDS011;61687;56.232;43.854;2022-08-05T05:33:33;16.75;;;8.70;;
73452;SDS011;61687;56.232;43.854;2022-08-05T05:35:58;12.67;;;8.93;;
73452;SDS011;61687;56.232;43.854;2022-08-05T05:38:24;16.13;;;9.20;;
73452;SDS011;61687;56.232;43.854;2022-08-05T05:40:50;12.75;;;9.32;;
73452;SDS011;61687;56.232;43.854;2022-08-05T05:43:16;17.20;;;9.53;;
73452;SDS011;61687;56.232;43.854;2022-08-05T05:45:43;16.35;;;9.25;;
73452;SDS011;61687;56.232;43.854;2022-08-05T05:48:09;14.32;;;8.85;;
73452;SDS011;61687;56.232;43.854;2022-08-05T05:50:35;15.07;;;8.10;;
73452;SDS011;61687;56.232;43.854;2022-08-05T05:53:01;14.57;;;8.27;;
73452;SDS011;61687;56.232;43.854;2022-08-05T05:55:27;16.38;;;8.25;;
73452;SDS011;61687;56.232;43.854;2022-08-05T05:57:53;16.08;;;8.98;;
73452;SDS011;61687;56.232;43.854;2022-08-05T06:00:19;14.40;;;8.23;;
73452;SDS011;61687;56.232;43.854;2022-08-05T06:02:47;18.05;;;8.70;;
73452;SDS011;61687;56.232;43.854;2022-08-05T06:05:13;17.10;;;9.25;;
73452;SDS011;61687;56.232;43.854;2022-08-05T06:07:40;16.10;;;9.65;;
73452;SDS011;61687;56.232;43.854;2022-08-05T06:10:07;16.63;;;8.83;;
73452;SDS011;61687;56.232;43.854;2022-08-05T06:12:35;14.32;;;8.93;;
73452;SDS011;61687;56.232;43.854;2022-08-05T06:15:03;14.80;;;9.65;;
73452;SDS011;61687;56.232;43.854;2022-08-05T06:17:31;16.45;;;8.93;;
73452;SDS011;61687;56.232;43.854;2022-08-05T06:19:57;19.05;;;9.73;;
73452;SDS011;61687;56.232;43.854;2022-08-05T06:22:24;11.93;;;8.53;;
73452;SDS011;61687;56.232;43.854;2022-08-05T06:24:54;16.42;;;9.55;;
73452;SDS011;61687;56.232;43.854;2022-08-05T06:27:20;16.77;;;10.15;;
73452;SDS011;61687;56.232;43.854;2022-08-05T06:29:46;19.63;;;9.45;;
73452;SDS011;61687;56.232;43.854;2022-08-05T06:32:12;17.40;;;9.20;;
73452;SDS011;61687;56.232;43.854;2022-08-05T06:34:39;16.92;;;9.98;;
73452;SDS011;61687;56.232;43.854;2022-08-05T06:37:05;13.30;;;8.93;;
73452;SDS011;61687;56.232;43.854;2022-08-05T06:39:31;12.85;;;8.73;;
73452;SDS011;61687;56.232;43.854;2022-08-05T06:41:57;15.87;;;9.77;;
73452;SDS011;61687;56.232;43.854;2022-08-05T06:44:30;15.95;;;9.07;;
73452;SDS011;61687;56.232;43.854;2022-08-05T06:46:56;18.65;;;9.73;;
73452;SDS011;61687;56.232;43.854;2022-08-05T06:49:22;15.50;;;9.45;;
73452;SDS011;61687;56.232;43.854;2022-08-05T06:51:49;15.00;;;9.95;;
73452;SDS011;61687;56.232;43.854;2022-08-05T06:54:15;13.60;;;8.97;;
73452;SDS011;61687;56.232;43.854;2022-08-05T06:56:41;17.77;;;9.20;;
73452;SDS011;61687;56.232;43.854;2022-08-05T06:59:07;18.40;;;8.95;;
73452;SDS011;61687;56.232;43.854;2022-08-05T07:01:34;13.15;;;9.00;;
73452;SDS011;61687;56.232;43.854;2022-08-05T07:04:00;14.85;;;9.20;;
73452;SDS011;61687;56.232;43.854;2022-08-05T07:06:26;14.37;;;9.30;;
73452;SDS011;61687;56.232;43.854;2022-08-05T07:08:52;14.43;;;8.68;;
73452;SDS011;61687;56.232;43.854;2022-08-05T07:11:18;14.02;;;9.40;;
73452;SDS011;61687;56.232;43.854;2022-08-05T07:13:44;17.30;;;8.52;;
73452;SDS011;61687;56.232;43.854;2022-08-05T07:16:29;14.38;;;9.55;;
73452;SDS011;61687;56.232;43.854;2022-08-05T07:19:14;13.17;;;9.07;;
73452;SDS011;61687;56.232;43.854;2022-08-05T07:21:45;11.07;;;9.13;;
73452;SDS011;61687;56.232;43.854;2022-08-05T07:24:11;15.25;;;9.77;;
73452;SDS011;61687;56.232;43.854;2022-08-05T07:26:37;14.80;;;10.02;;
73452;SDS011;61687;56.232;43.854;2022-08-05T07:29:04;11.90;;;9.23;;
73452;SDS011;61687;56.232;43.854;2022-08-05T07:31:30;13.65;;;9.57;;
73452;SDS011;61687;56.232;43.854;2022-08-05T07:33:56;13.63;;;8.85;;
73452;SDS011;61687;56.232;43.854;2022-08-05T07:36:22;12.57;;;9.20;;
73452;SDS011;61687;56.232;43.854;2022-08-05T07:38:47;11.00;;;9.27;;
73452;SDS011;61687;56.232;43.854;2022-08-05T07:41:14;14.52;;;9.50;;
73452;SDS011;61687;56.232;43.854;2022-08-05T07:43:42;13.43;;;9.48;;
73452;SDS011;61687;56.232;43.854;2022-08-05T07:46:08;13.30;;;10.27;;
73452;SDS011;61687;56.232;43.854;2022-08-05T07:48:34;15.13;;;9.65;;
73452;SDS011;61687;56.232;43.854;2022-08-05T07:51:00;14.87;;;9.50;;
73452;SDS011;61687;56.232;43.854;2022-08-05T07:53:26;12.07;;;9.68;;
73452;SDS011;61687;56.232;43.854;2022-08-05T07:55:52;16.30;;;10.60;;
73452;SDS011;61687;56.232;43.854;2022-08-05T07:58:17;16.57;;;10.00;;
73452;SDS011;61687;56.232;43.854;2022-08-05T08:00:43;12.95;;;10.45;;
73452;SDS011;61687;56.232;43.854;2022-08-05T08:03:10;14.45;;;10.05;;
73452;SDS011;61687;56.232;43.854;2022-08-05T08:05:37;13.73;;;9.30;;
73452;SDS011;61687;56.232;43.854;2022-08-05T08:08:09;15.35;;;10.57;;
73452;SDS011;61687;56.232;43.854;2022-08-05T08:10:36;18.00;;;11.00;;
73452;SDS011;61687;56.232;43.854;2022-08-05T08:13:02;15.15;;;10.30;;
73452;SDS011;61687;56.232;43.854;2022-08-05T08:15:28;13.43;;;10.00;;
73452;SDS011;61687;56.232;43.854;2022-08-05T08:17:54;15.38;;;10.65;;
73452;SDS011;61687;56.232;43.854;2022-08-05T08:20:20;17.03;;;11.67;;
73452;SDS011;61687;56.232;43.854;2022-08-05T08:22:54;14.55;;;11.35;;
73452;SDS011;61687;56.232;43.854;2022-08-05T08:25:22;15.82;;;11.07;;
73452;SDS011;61687;56.232;43.854;2022-08-05T08:27:48;12.48;;;9.98;;
73452;SDS011;61687;56.232;43.854;2022-08-05T08:30:14;14.07;;;10.80;;
73452;SDS011;61687;56.232;43.854;2022-08-05T08:32:40;15.15;;;10.63;;
73452;SDS011;61687;56.232;43.854;2022-08-05T08:35:06;13.43;;;10.20;;
73452;SDS011;61687;56.232;43.854;2022-08-05T08:37:33;16.10;;;10.40;;
73452;SDS011;61687;56.232;43.854;2022-08-05T08:39:59;17.05;;;10.98;;
73452;SDS011;61687;56.232;43.854;2022-08-05T08:42:25;14.10;;;10.67;;
73452;SDS011;61687;56.232;43.854;2022-08-05T08:44:52;17.08;;;11.18;;
73452;SDS011;61687;56.232;43.854;2022-08-05T08:47:21;13.57;;;10.68;;
73452;SDS011;61687;56.232;43.854;2022-08-05T08:49:51;14.13;;;10.93;;
73452;SDS011;61687;56.232;43.854;2022-08-05T08:52:22;15.40;;;10.23;;
73452;SDS011;61687;56.232;43.854;2022-08-05T08:54:51;13.07;;;10.90;;
73452;SDS011;61687;56.232;43.854;2022-08-05T08:57:18;15.48;;;10.48;;
73452;SDS011;61687;56.232;43.854;2022-08-05T08:59:44;14.60;;;10.90;;
73452;SDS011;61687;56.232;43.854;2022-08-05T09:02:10;16.08;;;11.15;;
73452;SDS011;61687;56.232;43.854;2022-08-05T09:04:37;16.57;;;11.17;;
73452;SDS011;61687;56.232;43.854;2022-08-05T09:07:03;15.75;;;11.90;;
73452;SDS011;61687;56.232;43.854;2022-08-05T09:09:31;16.08;;;11.32;;
73452;SDS011;61687;56.232;43.854;2022-08-05T09:11:58;15.25;;;11.15;;
73452;SDS011;61687;56.232;43.854;2022-08-05T09:14:25;17.15;;;11.63;;
73452;SDS011;61687;56.232;43.854;2022-08-05T09:16:51;14.50;;;10.53;;
73452;SDS011;61687;56.232;43.854;2022-08-05T09:19:17;13.20;;;10.85;;
73452;SDS011;61687;56.232;43.854;2022-08-05T09:21:43;13.05;;;11.35;;
73452;SDS011;61687;56.232;43.854;2022-08-05T09:24:09;16.02;;;10.80;;
73452;SDS011;61687;56.232;43.854;2022-08-05T09:26:37;14.18;;;10.95;;
73452;SDS011;61687;56.232;43.854;2022-08-05T09:29:05;15.07;;;10.87;;
73452;SDS011;61687;56.232;43.854;2022-08-05T09:31:32;15.95;;;11.02;;
73452;SDS011;61687;56.232;43.854;2022-08-05T09:34:03;14.85;;;10.63;;
73452;SDS011;61687;56.232;43.854;2022-08-05T09:36:47;15.45;;;11.18;;
73452;SDS011;61687;56.232;43.854;2022-08-05T09:39:15;15.25;;;11.15;;
73452;SDS011;61687;56.232;43.854;2022-08-05T09:41:55;14.43;;;11.40;;
73452;SDS011;61687;56.232;43.854;2022-08-05T09:47:11;14.48;;;11.13;;
73452;SDS011;61687;56.232;43.854;2022-08-05T09:49:42;14.18;;;11.52;;
73452;SDS011;61687;56.232;43.854;2022-08-05T09:52:26;14.68;;;12.00;;
73452;SDS011;61687;56.232;43.854;2022-08-05T09:55:00;14.67;;;12.10;;
73452;SDS011;61687;56.232;43.854;2022-08-05T09:57:31;17.33;;;12.43;;
73452;SDS011;61687;56.232;43.854;2022-08-05T10:00:22;15.82;;;11.48;;
73452;SDS011;61687;56.232;43.854;2022-08-05T10:02:51;14.75;;;11.63;;
73452;SDS011;61687;56.232;43.854;2022-08-05T10:05:26;16.83;;;10.50;;
73452;SDS011;61687;56.232;43.854;2022-08-05T10:07:56;15.40;;;11.03;;
73452;SDS011;61687;56.232;43.854;2022-08-05T10:12:58;17.65;;;11.10;;
73452;SDS011;61687;56.232;43.854;2022-08-05T10:15:26;16.30;;;10.57;;
73452;SDS011;61687;56.232;43.854;2022-08-05T10:20:50;15.73;;;11.67;;
73452;SDS011;61687;56.232;43.854;2022-08-05T10:23:19;14.68;;;11.20;;
73452;SDS011;61687;56.232;43.854;2022-08-05T10:25:47;13.80;;;12.35;;
73452;SDS011;61687;56.232;43.854;2022-08-05T10:28:13;15.73;;;11.35;;
73452;SDS011;61687;56.232;43.854;2022-08-05T10:30:40;13.85;;;11.15;;
73452;SDS011;61687;56.232;43.854;2022-08-05T10:33:06;14.57;;;11.00;;
73452;SDS011;61687;56.232;43.854;2022-08-05T10:35:33;13.95;;;11.05;;
73452;SDS011;61687;56.232;43.854;2022-08-05T10:37:59;14.38;;;10.73;;
73452;SDS011;61687;56.232;43.854;2022-08-05T10:43:02;13.02;;;9.82;;
73452;SDS011;61687;56.232;43.854;2022-08-05T10:45:37;13.43;;;10.23;;
73452;SDS011;61687;56.232;43.854;2022-08-05T10:51:14;15.10;;;9.95;;
73452;SDS011;61687;56.232;43.854;2022-08-05T10:56:22;17.57;;;10.97;;
73452;SDS011;61687;56.232;43.854;2022-08-05T11:01:27;21.13;;;10.95;;
73452;SDS011;61687;56.232;43.854;2022-08-05T11:07:21;15.65;;;11.15;;
73452;SDS011;61687;56.232;43.854;2022-08-05T11:09:35;12.63;;;10.83;;
73452;SDS011;61687;56.232;43.854;2022-08-05T11:12:03;17.05;;;11.15;;
73452;SDS011;61687;56.232;43.854;2022-08-05T11:14:33;14.50;;;11.02;;
73452;SDS011;61687;56.232;43.854;2022-08-05T11:19:51;14.15;;;10.75;;
73452;SDS011;61687;56.232;43.854;2022-08-05T11:25:26;14.65;;;10.90;;
73452;SDS011;61687;56.232;43.854;2022-08-05T11:27:56;15.07;;;10.90;;
73452;SDS011;61687;56.232;43.854;2022-08-05T11:31:42;18.50;;;11.95;;
73452;SDS011;61687;56.232;43.854;2022-08-05T11:36:19;13.43;;;10.70;;
73452;SDS011;61687;56.232;43.854;2022-08-05T11:39:03;16.92;;;11.40;;
73452;SDS011;61687;56.232;43.854;2022-08-05T11:41:30;17.25;;;11.20;;
73452;SDS011;61687;56.232;43.854;2022-08-05T11:43:57;12.75;;;10.40;;
73452;SDS011;61687;56.232;43.854;2022-08-05T11:46:28;14.50;;;10.55;;
73452;SDS011;61687;56.232;43.854;2022-08-05T11:48:59;15.93;;;10.37;;
73452;SDS011;61687;56.232;43.854;2022-08-05T11:51:28;17.98;;;11.27;;
73452;SDS011;61687;56.232;43.854;2022-08-05T11:53:54;15.23;;;11.07;;
73452;SDS011;61687;56.232;43.854;2022-08-05T11:56:21;15.35;;;11.48;;
73452;SDS011;61687;56.232;43.854;2022-08-05T11:58:48;13.07;;;10.23;;
73452;SDS011;61687;56.232;43.854;2022-08-05T12:01:16;13.47;;;10.57;;
73452;SDS011;61687;56.232;43.854;2022-08-05T12:03:49;15.82;;;10.00;;
73452;SDS011;61687;56.232;43.854;2022-08-05T12:06:21;13.70;;;10.05;;
73452;SDS011;61687;56.232;43.854;2022-08-05T12:08:54;15.05;;;10.20;;
73452;SDS011;61687;56.232;43.854;2022-08-05T12:11:23;13.55;;;9.80;;
73452;SDS011;61687;56.232;43.854;2022-08-05T12:13:59;11.53;;;9.33;;
73452;SDS011;61687;56.232;43.854;2022-08-05T12:16:28;12.65;;;9.52;;
73452;SDS011;61687;56.232;43.854;2022-08-05T12:18:57;12.75;;;10.07;;
73452;SDS011;61687;56.232;43.854;2022-08-05T12:21:27;18.58;;;9.38;;
73452;SDS011;61687;56.232;43.854;2022-08-05T12:23:58;15.23;;;11.50;;
73452;SDS011;61687;56.232;43.854;2022-08-05T12:26:31;13.37;;;10.70;;
73452;SDS011;61687;56.232;43.854;2022-08-05T12:29:01;14.93;;;10.63;;
73452;SDS011;61687;56.232;43.854;2022-08-05T12:31:32;16.27;;;9.82;;
73452;SDS011;61687;56.232;43.854;2022-08-05T12:34:00;12.57;;;10.10;;
73452;SDS011;61687;56.232;43.854;2022-08-05T12:36:26;11.88;;;10.23;;
73452;SDS011;61687;56.232;43.854;2022-08-05T12:38:53;18.93;;;10.33;;
73452;SDS011;61687;56.232;43.854;2022-08-05T12:41:19;12.68;;;9.75;;
73452;SDS011;61687;56.232;43.854;2022-08-05T12:43:49;13.95;;;10.60;;
73452;SDS011;61687;56.232;43.854;2022-08-05T12:46:24;14.27;;;10.07;;
73452;SDS011;61687;56.232;43.854;2022-08-05T12:48:55;14.77;;;10.70;;
73452;SDS011;61687;56.232;43.854;2022-08-05T12:51:42;12.95;;;10.23;;
73452;SDS011;61687;56.232;43.854;2022-08-05T12:54:30;14.88;;;10.27;;
73452;SDS011;61687;56.232;43.854;2022-08-05T12:56:57;13.07;;;10.07;;
73452;SDS011;61687;56.232;43.854;2022-08-05T13:04:30;15.50;;;12.18;;
73452;SDS011;61687;56.232;43.854;2022-08-05T13:07:00;12.95;;;10.77;;
73452;SDS011;61687;56.232;43.854;2022-08-05T13:09:29;15.00;;;10.32;;
73452;SDS011;61687;56.232;43.854;2022-08-05T13:12:02;12.25;;;10.15;;
73452;SDS011;61687;56.232;43.854;2022-08-05T13:14:39;14.80;;;9.20;;
73452;SDS011;61687;56.232;43.854;2022-08-05T13:17:15;11.93;;;9.38;;
73452;SDS011;61687;56.232;43.854;2022-08-05T13:20:05;12.30;;;11.00;;
73452;SDS011;61687;56.232;43.854;2022-08-05T13:22:40;14.38;;;10.32;;
73452;SDS011;61687;56.232;43.854;2022-08-05T13:25:11;12.55;;;10.43;;
73452;SDS011;61687;56.232;43.854;2022-08-05T13:27:42;18.13;;;13.63;;
73452;SDS011;61687;56.232;43.854;2022-08-05T13:30:13;12.40;;;9.45;;
73452;SDS011;61687;56.232;43.854;2022-08-05T13:32:40;11.73;;;9.48;;
73452;SDS011;61687;56.232;43.854;2022-08-05T13:35:07;15.10;;;9.55;;
73452;SDS011;61687;56.232;43.854;2022-08-05T13:37:34;14.73;;;10.48;;
73452;SDS011;61687;56.232;43.854;2022-08-05T13:40:00;16.80;;;10.87;;
73452;SDS011;61687;56.232;43.854;2022-08-05T13:42:28;18.55;;;10.10;;
73452;SDS011;61687;56.232;43.854;2022-08-05T13:44:55;16.08;;;11.55;;
73452;SDS011;61687;56.232;43.854;2022-08-05T13:47:24;13.60;;;9.70;;
73452;SDS011;61687;56.232;43.854;2022-08-05T13:49:51;15.77;;;10.18;;
73452;SDS011;61687;56.232;43.854;2022-08-05T13:52:24;25.90;;;18.87;;
73452;SDS011;61687;56.232;43.854;2022-08-05T13:54:51;20.85;;;12.55;;
73452;SDS011;61687;56.232;43.854;2022-08-05T13:57:18;16.10;;;10.63;;
73452;SDS011;61687;56.232;43.854;2022-08-05T13:59:45;18.52;;;14.85;;
73452;SDS011;61687;56.232;43.854;2022-08-05T14:02:11;16.63;;;12.85;;
73452;SDS011;61687;56.232;43.854;2022-08-05T14:04:40;16.10;;;11.00;;
73452;SDS011;61687;56.232;43.854;2022-08-05T14:07:32;11.65;;;10.00;;
73452;SDS011;61687;56.232;43.854;2022-08-05T14:10:00;18.42;;;10.38;;
73452;SDS011;61687;56.232;43.854;2022-08-05T14:12:27;16.70;;;10.63;;
73452;SDS011;61687;56.232;43.854;2022-08-05T14:14:53;20.93;;;11.90;;
73452;SDS011;61687;56.232;43.854;2022-08-05T14:17:19;16.80;;;12.63;;
73452;SDS011;61687;56.232;43.854;2022-08-05T14:19:47;16.20;;;11.73;;
73452;SDS011;61687;56.232;43.854;2022-08-05T14:22:14;17.60;;;11.80;;
73452;SDS011;61687;56.232;43.854;2022-08-05T14:24:40;14.60;;;10.70;;
73452;SDS011;61687;56.232;43.854;2022-08-05T14:27:06;21.97;;;14.63;;
73452;SDS011;61687;56.232;43.854;2022-08-05T14:29:32;18.15;;;13.30;;
73452;SDS011;61687;56.232;43.854;2022-08-05T14:31:59;19.40;;;12.38;;
73452;SDS011;61687;56.232;43.854;2022-08-05T14:34:24;18.23;;;10.77;;
73452;SDS011;61687;56.232;43.854;2022-08-05T14:36:50;14.70;;;12.50;;
73452;SDS011;61687;56.232;43.854;2022-08-05T14:39:16;16.73;;;10.53;;
73452;SDS011;61687;56.232;43.854;2022-08-05T14:41:42;15.77;;;10.05;;
73452;SDS011;61687;56.232;43.854;2022-08-05T14:44:08;14.85;;;10.05;;
73452;SDS011;61687;56.232;43.854;2022-08-05T14:46:34;17.45;;;10.70;;
73452;SDS011;61687;56.232;43.854;2022-08-05T14:49:01;16.90;;;10.37;;
73452;SDS011;61687;56.232;43.854;2022-08-05T14:51:28;19.90;;;11.05;;
73452;SDS011;61687;56.232;43.854;2022-08-05T14:53:54;16.15;;;12.82;;
73452;SDS011;61687;56.232;43.854;2022-08-05T14:56:20;17.88;;;11.45;;
73452;SDS011;61687;56.232;43.854;2022-08-05T14:58:46;14.52;;;11.18;;
73452;SDS011;61687;56.232;43.854;2022-08-05T15:01:12;21.67;;;12.40;;
73452;SDS011;61687;56.232;43.854;2022-08-05T15:03:38;14.15;;;11.45;;
73452;SDS011;61687;56.232;43.854;2022-08-05T15:06:05;22.05;;;11.48;;
73452;SDS011;61687;56.232;43.854;2022-08-05T15:08:32;17.27;;;12.43;;
73452;SDS011;61687;56.232;43.854;2022-08-05T15:10:58;36.25;;;27.98;;
73452;SDS011;61687;56.232;43.854;2022-08-05T15:13:24;27.50;;;17.43;;